Time;durP1;ratioP1;P1;durP2;ratioP2;P2;SDS_P1;SDS_P2;PMS_P1;PMS_P2;Temp;Humidity;BMP_temperature;BMP_pressure;BME280_temperature;BME280_humidity;BME280_pressure;Samples;Min_cycle;Max_cycle;Signal;HPM_P1;HPM_P2
2022/04/10 00:00:59;;;;;;;;;;;;;;;;;;2081535;28;19991;-83
2022/04/10 00:02:00;;;;;;;;;;;;;;;;;;2073072;28;19917;-83
2022/04/10 00:03:00;;;;;;;;;;;;;;;;;;2064921;28;19913;-82
2022/04/10 00:04:00;;;;;;;;;;;;;;;;;;2072975;28;20296;-84
2022/04/10 00:05:01;;;;;;;;;;;;;;;;;;2081798;28;19913;-83
2022/04/10 00:06:01;;;;;;;;;;;;;;;;;;2081643;28;19948;-82
2022/04/10 00:07:01;;;;;;;;;;;;;;;;;;2081843;28;19917;-82
2022/04/10 00:08:04;;;;;;;;;;;;;;;;;;2073122;28;20400;-82
2022/04/10 00:09:04;;;;;;;;;;;;;;;;;;2065182;28;19952;-82
2022/04/10 00:10:05;;;;;;;;;;;;;;;;;;2073123;28;19953;-82
2022/04/10 00:11:06;;;;;;;;;;;;;;;;;;2081729;28;19913;-82
2022/04/10 00:12:07;;;;;;;;;;;;;;;;;;2072533;28;20437;-83
2022/04/10 00:13:07;;;;;;;;;;;;;;;;;;2073070;28;19917;-82
2022/04/10 00:14:08;;;;;;;;;;;;;;;;;;2072945;28;19979;-83
2022/04/10 00:15:08;;;;;;;;;;;;;;;;;;2073113;28;19978;-82
2022/04/10 00:16:09;;;;;;;;;;;;;;;;;;2072917;28;19960;-81
2022/04/10 00:17:09;;;;;;;;;;;;;;;;;;2073012;28;19953;-81
2022/04/10 00:18:09;;;;;;;;;;;;;;;;;;2072798;28;19932;-82
2022/04/10 00:19:09;;;;;;;;;;;;;;;;;;2073077;28;20008;-83
2022/04/10 00:20:11;;;;;;;;;;;;;;;;;;2081632;28;20357;-83
2022/04/10 00:21:11;;;;;;;;;;;;;;;;;;2081637;28;20290;-82
2022/04/10 00:22:12;;;;;;;;;;;;;;;;;;2081533;28;19921;-82
2022/04/10 00:23:12;;;;;;;;;;;;;;;;;;2081718;28;20000;-82
2022/04/10 00:24:12;;;;;;;;;;;;;;;;;;2081502;28;20416;-82
2022/04/10 00:25:14;;;;;;;;;;;;;;;;;;2073141;28;19928;-83
2022/04/10 00:26:14;;;;;;;;;;;;;;;;;;2073215;28;20170;-82
2022/04/10 00:27:15;;;;;;;;;;;;;;;;;;2081566;28;19913;-83
2022/04/10 00:28:15;;;;;;;;;;;;;;;;;;2081862;28;20444;-83
2022/04/10 00:29:15;;;;;;;;;;;;;;;;;;2081644;28;19913;-83
2022/04/10 00:30:16;;;;;;;;;;;;;;;;;;2081798;28;20332;-82
2022/04/10 00:31:17;;;;;;;;;;;;;;;;;;2081543;28;19956;-84
2022/04/10 00:32:17;;;;;;;;;;;;;;;;;;2073019;28;19924;-82
2022/04/10 00:33:17;;;;;;;;;;;;;;;;;;2072947;28;19928;-83
2022/04/10 00:34:17;;;;;;;;;;;;;;;;;;2081452;28;20332;-82
2022/04/10 00:35:18;;;;;;;;;;;;;;;;;;2081755;28;20003;-82
2022/04/10 00:36:18;;;;;;;;;;;;;;;;;;2073019;28;20341;-82
2022/04/10 00:37:18;;;;;;;;;;;;;;;;;;2073105;28;19925;-83
2022/04/10 00:38:20;;;;;;;;;;;;;;;;;;2081570;28;19920;-82
2022/04/10 00:39:20;;;;;;;;;;;;;;;;;;2081630;28;19913;-82
2022/04/10 00:40:20;;;;;;;;;;;;;;;;;;2081590;28;19917;-81
2022/04/10 00:41:20;;;;;;;;;;;;;;;;;;2073096;28;19914;-82
2022/04/10 00:42:21;;;;;;;;;;;;;;;;;;2072983;28;19921;-82
2022/04/10 00:43:30;;;;;;;;;;;;;;;;;;2081570;28;19921;-82
2022/04/10 00:44:33;;;;;;;;;;;;;;;;;;2084307;28;20277;-83
2022/04/10 00:45:34;;;;;;;;;;;;;;;;;;2081470;28;19928;-82
2022/04/10 00:46:35;;;;;;;;;;;;;;;;;;2081668;28;19913;-82
2022/04/10 00:47:35;;;;;;;;;;;;;;;;;;2081643;28;19921;-83
2022/04/10 00:48:36;;;;;;;;;;;;;;;;;;2081628;28;20087;-83
2022/04/10 00:49:36;;;;;;;;;;;;;;;;;;2072825;28;20393;-83
2022/04/10 00:51:40;;;;;;;;;;;;;;;;;;2073062;28;19948;-86
2022/04/10 00:51:59;;;;;;;;;;;;;;;;;;2081405;28;20330;-82
2022/04/10 00:52:59;;;;;;;;;;;;;;;;;;2081490;28;19913;-83
2022/04/10 00:54:00;;;;;;;;;;;;;;;;;;2081460;28;19975;-84
2022/04/10 00:55:00;;;;;;;;;;;;;;;;;;2081689;28;20062;-84
2022/04/10 00:56:01;;;;;;;;;;;;;;;;;;2072811;28;19962;-84
2022/04/10 00:57:02;;;;;;;;;;;;;;;;;;2072842;28;20362;-84
2022/04/10 00:58:04;;;;;;;;;;;;;;;;;;2081435;28;20293;-84
2022/04/10 00:59:04;;;;;;;;;;;;;;;;;;2081679;28;19913;-85
2022/04/10 01:00:09;;;;;;;;;;;;;;;;;;2081560;28;19967;-83
2022/04/10 01:01:17;;;;;;;;;;;;;;;;;;2072808;28;19913;-83
2022/04/10 01:02:17;;;;;;;;;;;;;;;;;;2065610;28;20260;-84
2022/04/10 01:03:18;;;;;;;;;;;;;;;;;;2064858;28;20221;-84
2022/04/10 01:04:18;;;;;;;;;;;;;;;;;;2072820;28;19920;-83
2022/04/10 01:05:18;;;;;;;;;;;;;;;;;;2072956;28;19913;-82
2022/04/10 01:06:19;;;;;;;;;;;;;;;;;;2072795;28;19924;-83
2022/04/10 01:07:20;;;;;;;;;;;;;;;;;;2081440;28;19913;-83
2022/04/10 01:08:20;;;;;;;;;;;;;;;;;;2081494;28;20364;-83
2022/04/10 01:09:23;;;;;;;;;;;;;;;;;;2072841;28;19996;-83
2022/04/10 01:10:24;;;;;;;;;;;;;;;;;;2073121;28;19977;-82
2022/04/10 01:11:24;;;;;;;;;;;;;;;;;;2081658;28;20365;-83
2022/04/10 01:12:25;;;;;;;;;;;;;;;;;;2083162;28;19927;-83
2022/04/10 01:13:25;;;;;;;;;;;;;;;;;;2082959;28;19953;-83
2022/04/10 01:14:26;;;;;;;;;;;;;;;;;;2083019;28;20007;-83
2022/04/10 01:15:26;;;;;;;;;;;;;;;;;;2083059;28;20140;-83
2022/04/10 01:16:27;;;;;;;;;;;;;;;;;;2074391;28;19920;-83
2022/04/10 01:17:28;;;;;;;;;;;;;;;;;;2074519;28;19913;-83
2022/04/10 01:18:29;;;;;;;;;;;;;;;;;;2074378;28;20302;-84
2022/04/10 01:19:29;;;;;;;;;;;;;;;;;;2074184;28;19914;-83
2022/04/10 01:20:30;;;;;;;;;;;;;;;;;;2066252;28;19920;-83
2022/04/10 01:21:39;;;;;;;;;;;;;;;;;;2074445;28;19914;-83
2022/04/10 01:22:40;;;;;;;;;;;;;;;;;;2083159;28;19918;-83
2022/04/10 01:23:43;;;;;;;;;;;;;;;;;;2082985;28;19924;-83
2022/04/10 01:24:43;;;;;;;;;;;;;;;;;;2083074;28;19924;-83
2022/04/10 01:25:44;;;;;;;;;;;;;;;;;;2074314;28;20293;-83
2022/04/10 01:26:44;;;;;;;;;;;;;;;;;;2074434;28;20051;-83
2022/04/10 01:27:44;;;;;;;;;;;;;;;;;;2074175;28;19980;-82
2022/04/10 01:29:01;;;;;;;;;;;;;;;;;;2074316;28;19913;-83
2022/04/10 01:30:01;;;;;;;;;;;;;;;;;;2074304;28;20366;-82
2022/04/10 01:31:02;;;;;;;;;;;;;;;;;;2074382;28;19931;-83
2022/04/10 01:32:02;;;;;;;;;;;;;;;;;;2074185;28;19964;-83
2022/04/10 01:33:02;;;;;;;;;;;;;;;;;;2074348;28;19952;-84
2022/04/10 01:34:07;;;;;;;;;;;;;;;;;;2073621;28;20035;-83
2022/04/10 01:35:07;;;;;;;;;;;;;;;;;;2074900;28;19913;-82
2022/04/10 01:36:07;;;;;;;;;;;;;;;;;;2082870;28;19913;-83
2022/04/10 01:37:08;;;;;;;;;;;;;;;;;;2074259;28;20270;-84
2022/04/10 01:38:11;;;;;;;;;;;;;;;;;;2066085;28;19914;-83
2022/04/10 01:39:12;;;;;;;;;;;;;;;;;;2074341;28;19917;-84
2022/04/10 01:40:12;;;;;;;;;;;;;;;;;;2065987;28;19918;-83
2022/04/10 01:41:13;;;;;;;;;;;;;;;;;;2074329;28;19914;-83
2022/04/10 01:42:13;;;;;;;;;;;;;;;;;;2082839;28;20371;-82
2022/04/10 01:43:14;;;;;;;;;;;;;;;;;;2082878;28;20281;-83
2022/04/10 01:44:14;;;;;;;;;;;;;;;;;;2082709;28;19946;-83
2022/04/10 01:45:14;;;;;;;;;;;;;;;;;;2074188;28;19917;-83
2022/04/10 01:46:15;;;;;;;;;;;;;;;;;;2074276;28;19914;-83
2022/04/10 01:47:15;;;;;;;;;;;;;;;;;;2083049;28;19913;-83
2022/04/10 01:48:15;;;;;;;;;;;;;;;;;;2082741;28;19923;-83
2022/04/10 01:49:16;;;;;;;;;;;;;;;;;;2082862;28;19913;-83
2022/04/10 01:50:18;;;;;;;;;;;;;;;;;;2082663;28;20622;-82
2022/04/10 01:51:19;;;;;;;;;;;;;;;;;;2073688;28;19913;-82
2022/04/10 01:52:19;;;;;;;;;;;;;;;;;;2074130;28;19976;-82
2022/04/10 01:53:19;;;;;;;;;;;;;;;;;;2074230;28;19935;-82
2022/04/10 01:54:22;;;;;;;;;;;;;;;;;;2074056;28;19913;-84
2022/04/10 01:55:23;;;;;;;;;;;;;;;;;;2083126;28;19916;-84
2022/04/10 01:56:24;;;;;;;;;;;;;;;;;;2074251;28;20286;-84
2022/04/10 01:57:24;;;;;;;;;;;;;;;;;;2074114;28;19913;-83
2022/04/10 01:58:24;;;;;;;;;;;;;;;;;;2074036;28;19924;-84
2022/04/10 01:59:26;;;;;;;;;;;;;;;;;;2074097;28;19948;-85
2022/04/10 02:00:26;;;;;;;;;;;;;;;;;;2073959;28;19913;-83
2022/04/10 02:01:27;;;;;;;;;;;;;;;;;;2073985;28;19961;-83
2022/04/10 02:02:27;;;;;;;;;;;;;;;;;;2073992;28;19932;-83
2022/04/10 02:03:27;;;;;;;;;;;;;;;;;;2082665;28;19924;-83
2022/04/10 02:04:28;;;;;;;;;;;;;;;;;;2074170;28;20370;-84
2022/04/10 02:05:28;;;;;;;;;;;;;;;;;;2074015;28;19943;-83
2022/04/10 02:06:33;;;;;;;;;;;;;;;;;;2082658;28;20035;-82
2022/04/10 02:07:34;;;;;;;;;;;;;;;;;;2073961;28;19965;-83
2022/04/10 02:08:37;;;;;;;;;;;;;;;;;;2074247;28;19972;-83
2022/04/10 02:09:38;;;;;;;;;;;;;;;;;;2073893;28;20004;-83
2022/04/10 02:10:38;;;;;;;;;;;;;;;;;;2074106;28;19921;-84
2022/04/10 02:11:38;;;;;;;;;;;;;;;;;;2082438;28;19924;-83
2022/04/10 02:12:38;;;;;;;;;;;;;;;;;;2082727;28;19928;-84
2022/04/10 02:13:42;;;;;;;;;;;;;;;;;;2082452;28;19924;-83
2022/04/10 02:14:42;;;;;;;;;;;;;;;;;;2082605;28;20353;-83
2022/04/10 02:15:42;;;;;;;;;;;;;;;;;;2082515;28;20008;-83
2022/04/10 02:16:42;;;;;;;;;;;;;;;;;;2082629;28;19967;-83
2022/04/10 02:17:43;;;;;;;;;;;;;;;;;;2073863;28;19963;-84
2022/04/10 02:18:43;;;;;;;;;;;;;;;;;;2073905;28;19918;-83
2022/04/10 02:19:43;;;;;;;;;;;;;;;;;;2073884;28;20366;-83
2022/04/10 02:20:44;;;;;;;;;;;;;;;;;;2082514;28;19913;-82
2022/04/10 02:21:44;;;;;;;;;;;;;;;;;;2082605;28;19921;-82
2022/04/10 02:22:44;;;;;;;;;;;;;;;;;;2082514;28;19917;-83
2022/04/10 02:23:44;;;;;;;;;;;;;;;;;;2081889;28;19913;-82
2022/04/10 02:24:47;;;;;;;;;;;;;;;;;;2073858;28;20329;-83
2022/04/10 02:25:47;;;;;;;;;;;;;;;;;;2074109;28;20301;-82
2022/04/10 02:26:47;;;;;;;;;;;;;;;;;;2082554;28;19952;-85
2022/04/10 02:27:48;;;;;;;;;;;;;;;;;;2082475;28;20373;-83
2022/04/10 02:28:48;;;;;;;;;;;;;;;;;;2082431;28;19953;-83
2022/04/10 02:29:48;;;;;;;;;;;;;;;;;;2082442;28;19920;-82
2022/04/10 02:30:49;;;;;;;;;;;;;;;;;;2073657;28;20361;-82
2022/04/10 02:31:49;;;;;;;;;;;;;;;;;;2065718;28;19961;-82
2022/04/10 02:32:49;;;;;;;;;;;;;;;;;;2073912;28;19913;-82
2022/04/10 02:33:49;;;;;;;;;;;;;;;;;;2082516;28;19913;-83
2022/04/10 02:34:50;;;;;;;;;;;;;;;;;;2082465;28;20341;-83
2022/04/10 02:35:50;;;;;;;;;;;;;;;;;;2073752;28;19913;-83
2022/04/10 02:36:50;;;;;;;;;;;;;;;;;;2073874;28;20370;-83
2022/04/10 02:37:50;;;;;;;;;;;;;;;;;;2082533;28;19913;-83
2022/04/10 02:38:51;;;;;;;;;;;;;;;;;;2073710;28;19965;-83
2022/04/10 02:39:51;;;;;;;;;;;;;;;;;;2065799;28;20402;-84
2022/04/10 02:40:51;;;;;;;;;;;;;;;;;;2073701;28;20156;-84
2022/04/10 02:41:51;;;;;;;;;;;;;;;;;;2082352;28;19944;-83
2022/04/10 02:42:54;;;;;;;;;;;;;;;;;;2082379;28;19917;-83
2022/04/10 02:43:54;;;;;;;;;;;;;;;;;;2082501;28;20427;-84
2022/04/10 02:44:54;;;;;;;;;;;;;;;;;;2082256;28;19944;-83
2022/04/10 02:45:55;;;;;;;;;;;;;;;;;;2073670;28;19918;-83
2022/04/10 02:46:55;;;;;;;;;;;;;;;;;;2065551;28;19914;-83
2022/04/10 02:47:55;;;;;;;;;;;;;;;;;;2073715;28;19913;-83
2022/04/10 02:48:56;;;;;;;;;;;;;;;;;;2082355;28;19913;-83
2022/04/10 02:49:56;;;;;;;;;;;;;;;;;;2082273;28;19924;-83
2022/04/10 02:50:56;;;;;;;;;;;;;;;;;;2082364;28;19913;-83
2022/04/10 02:51:57;;;;;;;;;;;;;;;;;;2073653;28;20004;-82
2022/04/10 02:52:57;;;;;;;;;;;;;;;;;;2073667;28;19959;-84
2022/04/10 02:53:57;;;;;;;;;;;;;;;;;;2082180;28;19917;-83
2022/04/10 02:54:57;;;;;;;;;;;;;;;;;;2082329;28;20278;-83
2022/04/10 02:55:58;;;;;;;;;;;;;;;;;;2082276;28;19923;-83
2022/04/10 02:56:58;;;;;;;;;;;;;;;;;;2082279;28;19920;-83
2022/04/10 02:57:58;;;;;;;;;;;;;;;;;;2082375;28;20423;-83
2022/04/10 02:58:59;;;;;;;;;;;;;;;;;;2082237;28;19913;-83
2022/04/10 02:59:59;;;;;;;;;;;;;;;;;;2082492;28;20235;-84
2022/04/10 03:01:02;;;;;;;;;;;;;;;;;;2073542;28;20020;-83
2022/04/10 03:02:03;;;;;;;;;;;;;;;;;;2073487;28;19929;-82
2022/04/10 03:03:03;;;;;;;;;;;;;;;;;;2073512;28;20282;-82
2022/04/10 03:04:04;;;;;;;;;;;;;;;;;;2081622;28;20370;-82
2022/04/10 03:05:04;;;;;;;;;;;;;;;;;;2082295;28;19968;-83
2022/04/10 03:06:04;;;;;;;;;;;;;;;;;;2082266;28;20000;-83
2022/04/10 03:07:05;;;;;;;;;;;;;;;;;;2073729;28;19960;-82
2022/04/10 03:08:05;;;;;;;;;;;;;;;;;;2073554;28;20413;-83
2022/04/10 03:09:05;;;;;;;;;;;;;;;;;;2073461;28;19933;-83
2022/04/10 03:10:09;;;;;;;;;;;;;;;;;;2073377;28;20011;-82
2022/04/10 03:11:12;;;;;;;;;;;;;;;;;;2065814;28;19918;-83
2022/04/10 03:12:12;;;;;;;;;;;;;;;;;;2073478;28;19939;-84
2022/04/10 03:13:16;;;;;;;;;;;;;;;;;;2073438;28;19914;-83
2022/04/10 03:14:16;;;;;;;;;;;;;;;;;;2073332;28;19953;-83
2022/04/10 03:15:16;;;;;;;;;;;;;;;;;;2073534;28;20343;-83
2022/04/10 03:16:17;;;;;;;;;;;;;;;;;;2082071;28;20350;-82
2022/04/10 03:17:17;;;;;;;;;;;;;;;;;;2073382;28;20007;-82
2022/04/10 03:18:17;;;;;;;;;;;;;;;;;;2073522;28;19913;-82
2022/04/10 03:19:17;;;;;;;;;;;;;;;;;;2082139;28;20020;-82
2022/04/10 03:20:18;;;;;;;;;;;;;;;;;;2073395;28;19947;-83
2022/04/10 03:21:18;;;;;;;;;;;;;;;;;;2073558;28;20011;-83
2022/04/10 03:22:19;;;;;;;;;;;;;;;;;;2073219;28;19918;-83
2022/04/10 03:23:19;;;;;;;;;;;;;;;;;;2073491;28;20337;-82
2022/04/10 03:24:20;;;;;;;;;;;;;;;;;;2081902;28;19971;-82
2022/04/10 03:25:20;;;;;;;;;;;;;;;;;;2082151;28;20362;-83
2022/04/10 03:26:20;;;;;;;;;;;;;;;;;;2082134;28;19976;-83
2022/04/10 03:27:21;;;;;;;;;;;;;;;;;;2082053;28;19913;-83
2022/04/10 03:28:21;;;;;;;;;;;;;;;;;;2082041;28;20269;-82
2022/04/10 03:29:22;;;;;;;;;;;;;;;;;;2073305;28;19963;-82
2022/04/10 03:30:22;;;;;;;;;;;;;;;;;;2073424;28;19928;-82
2022/04/10 03:31:23;;;;;;;;;;;;;;;;;;2082110;28;19932;-82
2022/04/10 03:32:23;;;;;;;;;;;;;;;;;;2073328;28;20412;-82
2022/04/10 03:33:23;;;;;;;;;;;;;;;;;;2073142;28;19913;-83
2022/04/10 03:34:23;;;;;;;;;;;;;;;;;;2081993;28;20270;-83
2022/04/10 03:35:24;;;;;;;;;;;;;;;;;;2072361;28;20044;-82
2022/04/10 03:36:24;;;;;;;;;;;;;;;;;;2073259;28;19924;-82
2022/04/10 03:37:24;;;;;;;;;;;;;;;;;;2073242;28;19913;-82
2022/04/10 03:38:25;;;;;;;;;;;;;;;;;;2081348;28;20003;-82
2022/04/10 03:39:27;;;;;;;;;;;;;;;;;;2081554;28;20020;-83
2022/04/10 03:40:28;;;;;;;;;;;;;;;;;;2073200;28;19968;-83
2022/04/10 03:41:28;;;;;;;;;;;;;;;;;;2073360;28;20410;-82
2022/04/10 03:42:28;;;;;;;;;;;;;;;;;;2081775;28;19968;-82
2022/04/10 03:43:28;;;;;;;;;;;;;;;;;;2081809;28;19917;-82
2022/04/10 03:44:29;;;;;;;;;;;;;;;;;;2081952;28;20710;-82
2022/04/10 03:45:29;;;;;;;;;;;;;;;;;;2081877;28;19925;-81
2022/04/10 03:46:29;;;;;;;;;;;;;;;;;;2081972;28;19917;-82
2022/04/10 03:47:29;;;;;;;;;;;;;;;;;;2081912;28;19913;-82
2022/04/10 03:48:30;;;;;;;;;;;;;;;;;;2081819;28;20370;-82
2022/04/10 03:49:30;;;;;;;;;;;;;;;;;;2081892;28;19947;-82
2022/04/10 03:50:30;;;;;;;;;;;;;;;;;;2081938;28;19913;-82
2022/04/10 03:51:30;;;;;;;;;;;;;;;;;;2081766;28;19913;-82
2022/04/10 03:52:30;;;;;;;;;;;;;;;;;;2081830;28;19913;-82
2022/04/10 03:53:32;;;;;;;;;;;;;;;;;;2081762;28;20256;-82
2022/04/10 03:54:32;;;;;;;;;;;;;;;;;;2081884;28;20011;-83
2022/04/10 03:55:33;;;;;;;;;;;;;;;;;;2081808;28;19917;-83
2022/04/10 03:56:35;;;;;;;;;;;;;;;;;;2081946;28;19928;-82
2022/04/10 03:57:36;;;;;;;;;;;;;;;;;;2073101;28;19920;-82
2022/04/10 03:58:36;;;;;;;;;;;;;;;;;;2073171;28;19913;-83
2022/04/10 03:59:36;;;;;;;;;;;;;;;;;;2081832;28;19924;-86
2022/04/10 04:00:36;;;;;;;;;;;;;;;;;;2073076;28;20371;-82
2022/04/10 04:01:40;;;;;;;;;;;;;;;;;;2065025;28;19917;-82
2022/04/10 04:02:42;;;;;;;;;;;;;;;;;;2072985;28;19917;-82
2022/04/10 04:03:43;;;;;;;;;;;;;;;;;;2073425;28;19996;-83
2022/04/10 04:04:43;;;;;;;;;;;;;;;;;;2081826;28;20376;-82
2022/04/10 04:05:43;;;;;;;;;;;;;;;;;;2081749;28;19917;-82
2022/04/10 04:06:46;;;;;;;;;;;;;;;;;;2081709;28;19923;-81
2022/04/10 04:07:46;;;;;;;;;;;;;;;;;;2081698;28;19927;-82
2022/04/10 04:08:47;;;;;;;;;;;;;;;;;;2073085;28;19969;-84
2022/04/10 04:09:47;;;;;;;;;;;;;;;;;;2073044;28;19914;-82
2022/04/10 04:10:47;;;;;;;;;;;;;;;;;;2072775;28;19925;-83
2022/04/10 04:11:48;;;;;;;;;;;;;;;;;;2073183;28;19920;-83
2022/04/10 04:12:48;;;;;;;;;;;;;;;;;;2073094;28;19983;-83
2022/04/10 04:13:48;;;;;;;;;;;;;;;;;;2064812;28;19914;-82
2022/04/10 04:14:51;;;;;;;;;;;;;;;;;;2073107;28;20286;-82
2022/04/10 04:15:51;;;;;;;;;;;;;;;;;;2081778;28;19913;-83
2022/04/10 04:16:52;;;;;;;;;;;;;;;;;;2081647;28;19999;-82
2022/04/10 04:17:54;;;;;;;;;;;;;;;;;;2081812;28;19917;-82
2022/04/10 04:18:54;;;;;;;;;;;;;;;;;;2072993;28;19913;-82
2022/04/10 04:19:55;;;;;;;;;;;;;;;;;;2064912;28;19928;-82
2022/04/10 04:20:55;;;;;;;;;;;;;;;;;;2064911;28;19921;-83
2022/04/10 04:21:58;;;;;;;;;;;;;;;;;;2073092;28;19989;-83
2022/04/10 04:22:58;;;;;;;;;;;;;;;;;;2081798;28;20004;-83
2022/04/10 04:23:58;;;;;;;;;;;;;;;;;;2081588;28;19913;-83
2022/04/10 04:24:58;;;;;;;;;;;;;;;;;;2081527;28;19987;-82
2022/04/10 04:26:01;;;;;;;;;;;;;;;;;;2072773;28;19956;-83
2022/04/10 04:27:02;;;;;;;;;;;;;;;;;;2065063;28;19913;-82
2022/04/10 04:28:02;;;;;;;;;;;;;;;;;;2073062;28;19964;-82
2022/04/10 04:29:05;;;;;;;;;;;;;;;;;;2081540;28;20004;-82
2022/04/10 04:30:06;;;;;;;;;;;;;;;;;;2082019;28;19913;-82
2022/04/10 04:31:06;;;;;;;;;;;;;;;;;;2081675;28;20003;-82
2022/04/10 04:32:07;;;;;;;;;;;;;;;;;;2081641;28;20355;-82
2022/04/10 04:33:07;;;;;;;;;;;;;;;;;;2081598;28;19921;-82
2022/04/10 04:34:11;;;;;;;;;;;;;;;;;;2081508;28;19913;-83
2022/04/10 04:35:12;;;;;;;;;;;;;;;;;;2081574;28;19971;-83
2022/04/10 04:36:13;;;;;;;;;;;;;;;;;;2081550;28;19953;-84
2022/04/10 04:37:13;;;;;;;;;;;;;;;;;;2072961;28;19976;-84
2022/04/10 04:38:14;;;;;;;;;;;;;;;;;;2072917;28;20001;-84
2022/04/10 04:39:20;;;;;;;;;;;;;;;;;;2081143;28;19924;-84
2022/04/10 04:40:34;;;;;;;;;;;;;;;;;;2072186;28;19948;-84
2022/04/10 04:47:12;;;;;;;;;;;;;;;;;;2041507;29;19922;-85
2022/04/10 04:48:12;;;;;;;;;;;;;;;;;;2035231;29;19918;-83
2022/04/10 04:49:14;;;;;;;;;;;;;;;;;;2040362;29;19923;-83
2022/04/10 04:50:18;;;;;;;;;;;;;;;;;;2050762;28;19915;-84
2022/04/10 04:51:18;;;;;;;;;;;;;;;;;;2076143;28;19918;-83
2022/04/10 04:52:18;;;;;;;;;;;;;;;;;;2084341;28;19920;-86
2022/04/10 04:53:19;;;;;;;;;;;;;;;;;;2084303;28;19913;-82
2022/04/10 04:56:28;;;;;;;;;;;;;;;;;;2049819;29;19999;-84
2022/04/10 04:57:29;;;;;;;;;;;;;;;;;;2050594;29;19923;-83
2022/04/10 04:58:32;;;;;;;;;;;;;;;;;;2050562;29;19929;-82
2022/04/10 04:59:50;;;;;;;;;;;;;;;;;;2051110;29;19918;-83
2022/04/10 05:00:52;;;;;;;;;;;;;;;;;;2051060;28;19918;-84
2022/04/10 05:01:56;;;;;;;;;;;;;;;;;;2051117;28;19929;-83
2022/04/10 05:02:56;;;;;;;;;;;;;;;;;;2051033;28;19922;-84
2022/04/10 05:04:03;;;;;;;;;;;;;;;;;;2051088;29;19961;-85
2022/04/10 05:05:04;;;;;;;;;;;;;;;;;;2052104;28;19914;-86
2022/04/10 05:06:04;;;;;;;;;;;;;;;;;;2043074;29;19930;-84
2022/04/10 05:07:08;;;;;;;;;;;;;;;;;;2043174;29;19946;-84
2022/04/10 05:08:09;;;;;;;;;;;;;;;;;;2076871;28;19913;-84
2022/04/10 05:09:14;;;;;;;;;;;;;;;;;;2084336;28;19913;-83
2022/04/10 05:10:14;;;;;;;;;;;;;;;;;;2075499;28;20393;-84
2022/04/10 05:11:15;;;;;;;;;;;;;;;;;;2075537;28;19914;-83
2022/04/10 05:12:20;;;;;;;;;;;;;;;;;;2084123;28;19913;-83
2022/04/10 05:13:24;;;;;;;;;;;;;;;;;;2085072;28;19912;-83
2022/04/10 05:14:29;;;;;;;;;;;;;;;;;;2084325;28;19913;-83
2022/04/10 05:15:29;;;;;;;;;;;;;;;;;;2084209;28;19924;-84
2022/04/10 05:21:40;;;;;;;;;;;;;;;;;;2031751;28;19935;-87
2022/04/10 05:22:49;;;;;;;;;;;;;;;;;;2051028;28;19962;-84
2022/04/10 05:23:52;;;;;;;;;;;;;;;;;;2073933;28;19952;-87
2022/04/10 05:25:02;;;;;;;;;;;;;;;;;;;;;
2022/04/10 05:26:05;;;;;;;;;;;;;;;;;;2084056;28;20401;-84
2022/04/10 05:27:17;;;;;;;;;;;;;;;;;;2075354;28;19924;-84
2022/04/10 05:28:20;;;;;;;;;;;;;;;;;;2077102;28;19917;-84
2022/04/10 05:29:20;;;;;;;;;;;;;;;;;;2084416;28;19917;-86
2022/04/10 05:30:20;;;;;;;;;;;;;;;;;;2083900;28;20424;-84
2022/04/10 05:31:26;;;;;;;;;;;;;;;;;;2075432;28;19917;-83
2022/04/10 05:32:27;;;;;;;;;;;;;;;;;;2076120;28;19971;-85
2022/04/10 05:33:27;;;;;;;;;;;;;;;;;;2075288;28;19971;-85
2022/04/10 05:34:27;;;;;;;;;;;;;;;;;;2075410;28;19914;-85
2022/04/10 05:35:30;;;;;;;;;;;;;;;;;;2084069;28;19913;-84
2022/04/10 05:36:30;;;;;;;;;;;;;;;;;;2075312;28;19913;-84
2022/04/10 05:37:38;;;;;;;;;;;;;;;;;;2075512;28;19925;-83
2022/04/10 05:38:41;;;;;;;;;;;;;;;;;;2084838;28;19988;-84
2022/04/10 05:39:50;;;;;;;;;;;;;;;;;;2084138;28;19920;-84
2022/04/10 05:40:54;;;;;;;;;;;;;;;;;;2084308;28;20390;-84
2022/04/10 05:41:58;;;;;;;;;;;;;;;;;;2084074;28;19979;-84
2022/04/10 05:42:58;;;;;;;;;;;;;;;;;;2084285;28;19917;-87
2022/04/10 05:44:01;;;;;;;;;;;;;;;;;;2083987;28;19917;-84
2022/04/10 05:45:13;;;;;;;;;;;;;;;;;;2083835;28;19979;-83
2022/04/10 05:46:13;;;;;;;;;;;;;;;;;;2086569;28;19917;-84
2022/04/10 05:47:26;;;;;;;;;;;;;;;;;;;;;
2022/04/10 05:48:29;;;;;;;;;;;;;;;;;;2077089;28;19928;-84
2022/04/10 05:49:32;;;;;;;;;;;;;;;;;;2084091;28;20354;-84
2022/04/10 05:50:38;;;;;;;;;;;;;;;;;;2084120;28;19924;-84
2022/04/10 05:51:39;;;;;;;;;;;;;;;;;;2084131;28;19913;-83
2022/04/10 05:52:55;;;;;;;;;;;;;;;;;;;;;
2022/04/10 05:54:03;;;;;;;;;;;;;;;;;;2084130;28;19944;-83
2022/04/10 05:55:06;;;;;;;;;;;;;;;;;;2075249;28;19928;-84
2022/04/10 05:56:06;;;;;;;;;;;;;;;;;;2075300;28;19925;-83
2022/04/10 05:57:17;;;;;;;;;;;;;;;;;;2075441;28;19953;-83
2022/04/10 05:58:17;;;;;;;;;;;;;;;;;;2084682;28;20020;-84
2022/04/10 05:59:25;;;;;;;;;;;;;;;;;;2082671;28;19913;-84
2022/04/10 06:00:27;;;;;;;;;;;;;;;;;;2082747;28;19913;-84
2022/04/10 06:01:58;;;;;;;;;;;;;;;;;;2082541;28;19913;-83
2022/04/10 06:03:04;;;;;;;;;;;;;;;;;;2082772;28;20282;-83
2022/04/10 06:04:07;;;;;;;;;;;;;;;;;;2073788;28;19924;-85
2022/04/10 06:05:10;;;;;;;;;;;;;;;;;;2074358;28;20330;-84
2022/04/10 06:06:17;;;;;;;;;;;;;;;;;;2082736;28;19945;-84
2022/04/10 06:07:18;;;;;;;;;;;;;;;;;;2084794;28;19953;-83
2022/04/10 06:08:20;;;;;;;;;;;;;;;;;;2074112;28;19918;-86
2022/04/10 06:09:23;;;;;;;;;;;;;;;;;;2074500;28;19949;-84
2022/04/10 06:10:23;;;;;;;;;;;;;;;;;;2082754;28;19917;-83
2022/04/10 06:11:29;;;;;;;;;;;;;;;;;;2082644;28;20172;-82
2022/04/10 06:12:34;;;;;;;;;;;;;;;;;;2073924;28;19956;-85
2022/04/10 06:13:37;;;;;;;;;;;;;;;;;;2076653;28;19914;-86
2022/04/10 06:14:40;;;;;;;;;;;;;;;;;;2082823;28;20268;-85
2022/04/10 06:15:43;;;;;;;;;;;;;;;;;;2082584;28;20361;-83
2022/04/10 06:16:48;;;;;;;;;;;;;;;;;;2073860;28;19913;-84
2022/04/10 06:17:58;;;;;;;;;;;;;;;;;;2066393;28;20449;-84
2022/04/10 06:19:01;;;;;;;;;;;;;;;;;;2071406;28;19980;-84
2022/04/10 06:20:04;;;;;;;;;;;;;;;;;;2082763;28;19923;-87
2022/04/10 06:21:05;;;;;;;;;;;;;;;;;;2082649;28;19974;-85
2022/04/10 06:22:08;;;;;;;;;;;;;;;;;;2082443;28;20280;-84
2022/04/10 06:23:14;;;;;;;;;;;;;;;;;;2082315;28;20018;-82
2022/04/10 06:24:27;;;;;;;;;;;;;;;;;;;;;
2022/04/10 06:25:37;;;;;;;;;;;;;;;;;;2075736;28;19913;-83
2022/04/10 06:26:43;;;;;;;;;;;;;;;;;;2082594;28;19936;-84
2022/04/10 06:28:01;;;;;;;;;;;;;;;;;;2073428;28;20330;-85
2022/04/10 06:29:09;;;;;;;;;;;;;;;;;;2076272;28;19974;-84
2022/04/10 06:30:12;;;;;;;;;;;;;;;;;;2082517;28;19913;-86
2022/04/10 06:31:13;;;;;;;;;;;;;;;;;;2073829;28;19972;-84
2022/04/10 06:32:14;;;;;;;;;;;;;;;;;;2073976;28;19950;-86
2022/04/10 06:33:23;;;;;;;;;;;;;;;;;;2082381;28;19932;-83
2022/04/10 06:34:26;;;;;;;;;;;;;;;;;;2082450;28;19921;-84
2022/04/10 06:35:29;;;;;;;;;;;;;;;;;;2082630;28;20361;-83
2022/04/10 06:36:35;;;;;;;;;;;;;;;;;;2082195;28;19960;-83
2022/04/10 06:37:38;;;;;;;;;;;;;;;;;;2082467;28;20275;-84
2022/04/10 06:39:02;;;;;;;;;;;;;;;;;;2082279;28;19913;-84
2022/04/10 06:40:10;;;;;;;;;;;;;;;;;;2085430;28;19913;-83
2022/04/10 06:41:20;;;;;;;;;;;;;;;;;;2083196;28;19920;-83
2022/04/10 06:42:37;;;;;;;;;;;;;;;;;;2082274;28;19973;-83
2022/04/10 06:43:55;;;;;;;;;;;;;;;;;;;;;
2022/04/10 06:44:58;;;;;;;;;;;;;;;;;;2082331;28;19913;-83
2022/04/10 06:46:04;;;;;;;;;;;;;;;;;;2082426;28;19971;-84
2022/04/10 06:47:05;;;;;;;;;;;;;;;;;;2084283;28;19980;-85
2022/04/10 06:48:07;;;;;;;;;;;;;;;;;;2082204;28;20378;-86
2022/04/10 06:49:08;;;;;;;;;;;;;;;;;;2082308;28;19912;-84
2022/04/10 06:50:12;;;;;;;;;;;;;;;;;;2073625;28;19914;-83
2022/04/10 06:51:18;;;;;;;;;;;;;;;;;;2073575;28;19913;-85
2022/04/10 06:55:11;;;;;;;;;;;;;;;;;;2082356;28;20186;-84
2022/04/10 06:56:26;;;;;;;;;;;;;;;;;;2085159;28;19963;-85
2022/04/10 06:57:29;;;;;;;;;;;;;;;;;;2073824;28;19917;-85
2022/04/10 06:58:34;;;;;;;;;;;;;;;;;;2073872;28;19923;-84
2022/04/10 06:59:54;;;;;;;;;;;;;;;;;;2082394;28;20351;-84
2022/04/10 07:00:55;;;;;;;;;;;;;;;;;;2082244;28;20174;-85
2022/04/10 07:01:57;;;;;;;;;;;;;;;;;;2073471;28;19964;-84
2022/04/10 07:03:01;;;;;;;;;;;;;;;;;;2065514;28;19981;-84
2022/04/10 07:04:01;;;;;;;;;;;;;;;;;;2065666;28;19922;-84
2022/04/10 07:05:01;;;;;;;;;;;;;;;;;;2065272;28;20008;-84
2022/04/10 07:06:09;;;;;;;;;;;;;;;;;;2065294;28;19920;-84
2022/04/10 07:07:12;;;;;;;;;;;;;;;;;;2077429;28;20370;-84
2022/04/10 07:08:15;;;;;;;;;;;;;;;;;;2082064;28;19960;-84
2022/04/10 07:09:38;;;;;;;;;;;;;;;;;;2081784;28;19913;-85
2022/04/10 07:10:39;;;;;;;;;;;;;;;;;;2073409;28;19913;-84
2022/04/10 07:11:49;;;;;;;;;;;;;;;;;;;;;
2022/04/10 07:13:10;;;;;;;;;;;;;;;;;;2082071;28;20310;-84
2022/04/10 07:14:10;;;;;;;;;;;;;;;;;;2081665;28;19949;-85
2022/04/10 07:15:13;;;;;;;;;;;;;;;;;;2073560;28;19914;-84
2022/04/10 07:16:16;;;;;;;;;;;;;;;;;;2073749;28;19972;-85
2022/04/10 07:17:16;;;;;;;;;;;;;;;;;;2073437;28;19925;-84
2022/04/10 07:18:17;;;;;;;;;;;;;;;;;;2073502;28;19917;-84
2022/04/10 07:19:18;;;;;;;;;;;;;;;;;;2073628;28;19932;-86
2022/04/10 07:20:18;;;;;;;;;;;;;;;;;;2065192;28;19914;-84
2022/04/10 07:23:41;;;;;;;;;;;;;;;;;;2073640;28;19914;-85
2022/04/10 07:24:07;;;;;;;;;;;;;;;;;;2082160;28;19917;-84